Terminal Aerodrome Forecast
Issued by NWS

Home | Current Version | Previous Version | Text Only | Print | Product List | Glossary On
Versions: 1 2 3 4 5 6 7 8 9 10 11 12 13 14 15
000
FTUS43 KAPX 040851 AAB
TAFPLN
TAF AMD
KPLN 040851Z 0409/0506 31008KT 6SM -SHRA OVC005
     FM041300 35012KT P6SM VCSH BKN015 OVC030
     FM041800 35013G20KT P6SM BKN035
     FM050200 35009KT P6SM BKN040=

USA.gov is the U.S. government's official web portal to all federal, state and local government web resources and services.